Airfield :
LOGIN :

Register | Disclaimer

   EN    FR    IT 

 










Legend :    VFR   Marginal VFR   IFR   Intensive IFR   Very Intensive IFR
Visi :
Ceiling :
>= 8 km
>= 3000ft
5 to 8 km
1000 to 3000 ft
1500m to 5 km
500 to 1000 ft
800 to 1500m
200 to 500 ft
< 800m
< 200 ft
Symbols :   Thunderstorms  Fog  Heavy snow  Heavy precipitations  Wind > 20 kt
SIGMETs :     Misc.  Thunderstorms  Icing  Turbulence  Mountain Waves  Volcanic Ashes







- Airport Elevation : 778 ft
- IATA code : BRQ


LKTB - Brno-Turany

CURRENT METAR :
  • 301400Z 35005KT CAVOK 17/06 Q1026 NOSIG

EXPIRED METARs :
  • 301330Z 30004KT CAVOK 17/06 Q1026 NOSIG
  • 301300Z 30007KT 280V350 9999 BKN047 17/07 Q1026 NOSIG
  • 301230Z VRB05KT 9999 BKN046 17/06 Q1026 NOSIG
  • 301200Z 32006KT 300V010 9999 BKN046 16/06 Q1026 NOSIG
  • 301130Z 34007KT 300V020 CAVOK 16/07 Q1027 NOSIG

TAF TAF LKTB
Valid from the 30 at 12:00 until the 31 at 18:00 UTC


301100Z 3012/3118 32008KT CAVOK
TEMPO 3012/3016 9999 BKN040
BECMG 3016/3018 VRB02KT
BECMG 3108/3110 14008KT
TEMPO 3110/3118 16014G24KT
No reported NOTAMs for that airfield.



MET'MAP, your aeronautical weather chart ! - Copyright ORBIFLY December 2007 - Disclaimer

ORBIFLY MET'MAP TEAM :

Programming & Development : Alexandra Zaïnal
Concept & Development : Baudouin d'Aumeries
Co-Development & Prog : Marc-Olivier Méhu
Technical & hardware support : Manuel Goepfert

Contact : metmap@orbifly.com




SOURCES & CREDITS :

   NOAA